Arneckeville, Texas
Current Conditions -  °F | °C
As of 5:51 AM on Monday 24 Nov 2014 (Local Time) from KVCT Reporting Station
Clear Clear  
Wind Chill: 53°   Ceiling: Unl
Heat Index: 53°   Visibility: 10mi
Dew Point: 39°   Wind: 12mph
Humidity: 59%   Direction: 350°N
Pressure: 29.95"   Gusts: NA
Location:  29.0941°N, 97.191°W
Report Text: KVCT 241151Z AUTO 35010KT 10SM CLR 12/04 A2995 RMK AO2 SLP140 T01170039 10183 20117 53028
Loading
Personal Weather Stations






























Interactive Weather Map New forecast layout! Learn more

10-Day Weather Forecast

Advertisements
Track Severe Weather on mobile